sensor_id;sensor_type;location;lat;lon;timestamp;P1;durP1;ratioP1;P2;durP2;ratioP2
44197;SDS011;30157;55.512;37.764;2023-04-06T00:00:32;7.05;;;5.28;;
44197;SDS011;30157;55.512;37.764;2023-04-06T00:02:58;9.90;;;5.55;;
44197;SDS011;30157;55.512;37.764;2023-04-06T00:05:23;7.88;;;5.15;;
44197;SDS011;30157;55.512;37.764;2023-04-06T00:07:49;8.43;;;5.38;;
44197;SDS011;30157;55.512;37.764;2023-04-06T00:10:15;8.13;;;5.28;;
44197;SDS011;30157;55.512;37.764;2023-04-06T00:12:42;8.70;;;4.70;;
44197;SDS011;30157;55.512;37.764;2023-04-06T00:15:08;8.02;;;4.72;;
44197;SDS011;30157;55.512;37.764;2023-04-06T00:17:34;7.55;;;4.88;;
44197;SDS011;30157;55.512;37.764;2023-04-06T00:20:00;7.18;;;4.80;;
44197;SDS011;30157;55.512;37.764;2023-04-06T00:22:26;7.15;;;4.80;;
44197;SDS011;30157;55.512;37.764;2023-04-06T00:24:51;7.72;;;4.70;;
44197;SDS011;30157;55.512;37.764;2023-04-06T00:27:17;7.88;;;5.10;;
44197;SDS011;30157;55.512;37.764;2023-04-06T00:29:43;7.03;;;4.55;;
44197;SDS011;30157;55.512;37.764;2023-04-06T00:32:10;8.57;;;4.75;;
44197;SDS011;30157;55.512;37.764;2023-04-06T00:34:35;8.52;;;5.45;;
44197;SDS011;30157;55.512;37.764;2023-04-06T00:37:01;7.07;;;4.78;;
44197;SDS011;30157;55.512;37.764;2023-04-06T00:39:27;8.10;;;5.07;;
44197;SDS011;30157;55.512;37.764;2023-04-06T00:41:52;9.65;;;5.07;;
44197;SDS011;30157;55.512;37.764;2023-04-06T00:44:19;6.13;;;4.10;;
44197;SDS011;30157;55.512;37.764;2023-04-06T00:46:45;8.10;;;5.03;;
44197;SDS011;30157;55.512;37.764;2023-04-06T00:49:11;9.90;;;4.88;;
44197;SDS011;30157;55.512;37.764;2023-04-06T00:51:37;7.72;;;4.68;;
44197;SDS011;30157;55.512;37.764;2023-04-06T00:54:03;9.23;;;4.97;;
44197;SDS011;30157;55.512;37.764;2023-04-06T00:56:31;8.45;;;5.03;;
44197;SDS011;30157;55.512;37.764;2023-04-06T00:58:57;7.63;;;5.20;;
44197;SDS011;30157;55.512;37.764;2023-04-06T01:01:23;10.85;;;5.35;;
44197;SDS011;30157;55.512;37.764;2023-04-06T01:03:52;8.73;;;5.25;;
44197;SDS011;30157;55.512;37.764;2023-04-06T01:06:20;8.20;;;4.63;;
44197;SDS011;30157;55.512;37.764;2023-04-06T01:08:54;9.73;;;5.57;;
44197;SDS011;30157;55.512;37.764;2023-04-06T01:11:23;8.52;;;5.55;;
44197;SDS011;30157;55.512;37.764;2023-04-06T01:13:51;7.30;;;4.90;;
44197;SDS011;30157;55.512;37.764;2023-04-06T01:19:10;8.23;;;4.88;;
44197;SDS011;30157;55.512;37.764;2023-04-06T01:21:41;9.10;;;4.88;;
44197;SDS011;30157;55.512;37.764;2023-04-06T01:24:39;7.88;;;4.85;;
44197;SDS011;30157;55.512;37.764;2023-04-06T01:27:18;9.18;;;5.40;;
44197;SDS011;30157;55.512;37.764;2023-04-06T01:30:02;11.45;;;5.25;;
44197;SDS011;30157;55.512;37.764;2023-04-06T01:32:39;8.32;;;5.10;;
44197;SDS011;30157;55.512;37.764;2023-04-06T01:35:06;8.50;;;5.43;;
44197;SDS011;30157;55.512;37.764;2023-04-06T01:37:36;7.50;;;5.00;;
44197;SDS011;30157;55.512;37.764;2023-04-06T01:40:05;9.25;;;4.88;;
44197;SDS011;30157;55.512;37.764;2023-04-06T01:42:43;7.68;;;4.53;;
44197;SDS011;30157;55.512;37.764;2023-04-06T01:45:13;8.27;;;5.20;;
44197;SDS011;30157;55.512;37.764;2023-04-06T01:47:40;8.25;;;4.85;;
44197;SDS011;30157;55.512;37.764;2023-04-06T01:50:06;9.73;;;5.20;;
44197;SDS011;30157;55.512;37.764;2023-04-06T01:52:37;8.60;;;5.10;;
44197;SDS011;30157;55.512;37.764;2023-04-06T01:55:03;8.82;;;5.18;;
44197;SDS011;30157;55.512;37.764;2023-04-06T01:57:47;8.90;;;5.05;;
44197;SDS011;30157;55.512;37.764;2023-04-06T02:00:24;11.25;;;5.90;;
44197;SDS011;30157;55.512;37.764;2023-04-06T02:02:53;10.48;;;5.28;;
44197;SDS011;30157;55.512;37.764;2023-04-06T02:05:24;10.18;;;5.65;;
44197;SDS011;30157;55.512;37.764;2023-04-06T02:07:52;9.70;;;5.70;;
44197;SDS011;30157;55.512;37.764;2023-04-06T02:10:25;10.73;;;5.47;;
44197;SDS011;30157;55.512;37.764;2023-04-06T02:12:51;10.70;;;6.35;;
44197;SDS011;30157;55.512;37.764;2023-04-06T02:15:23;9.98;;;6.38;;
44197;SDS011;30157;55.512;37.764;2023-04-06T02:17:48;11.65;;;6.93;;
44197;SDS011;30157;55.512;37.764;2023-04-06T02:20:14;10.85;;;6.60;;
44197;SDS011;30157;55.512;37.764;2023-04-06T02:22:40;8.90;;;6.47;;
44197;SDS011;30157;55.512;37.764;2023-04-06T02:25:05;11.02;;;6.38;;
44197;SDS011;30157;55.512;37.764;2023-04-06T02:27:32;8.65;;;5.75;;
44197;SDS011;30157;55.512;37.764;2023-04-06T02:29:58;11.23;;;6.03;;
44197;SDS011;30157;55.512;37.764;2023-04-06T02:32:24;13.13;;;7.07;;
44197;SDS011;30157;55.512;37.764;2023-04-06T02:34:50;11.82;;;6.38;;
44197;SDS011;30157;55.512;37.764;2023-04-06T02:37:19;10.60;;;7.03;;
44197;SDS011;30157;55.512;37.764;2023-04-06T02:39:45;10.95;;;6.68;;
44197;SDS011;30157;55.512;37.764;2023-04-06T02:42:11;11.35;;;6.88;;
44197;SDS011;30157;55.512;37.764;2023-04-06T02:44:37;11.57;;;6.75;;
44197;SDS011;30157;55.512;37.764;2023-04-06T02:47:02;12.13;;;6.30;;
44197;SDS011;30157;55.512;37.764;2023-04-06T02:49:29;11.52;;;6.75;;
44197;SDS011;30157;55.512;37.764;2023-04-06T02:51:57;13.52;;;7.50;;
44197;SDS011;30157;55.512;37.764;2023-04-06T02:54:27;11.95;;;7.38;;
44197;SDS011;30157;55.512;37.764;2023-04-06T02:56:53;11.65;;;6.57;;
44197;SDS011;30157;55.512;37.764;2023-04-06T02:59:21;11.05;;;6.72;;
44197;SDS011;30157;55.512;37.764;2023-04-06T03:02:00;10.20;;;6.88;;
44197;SDS011;30157;55.512;37.764;2023-04-06T03:04:26;11.98;;;7.38;;
44197;SDS011;30157;55.512;37.764;2023-04-06T03:06:53;11.02;;;6.88;;
44197;SDS011;30157;55.512;37.764;2023-04-06T03:09:31;12.20;;;7.13;;
44197;SDS011;30157;55.512;37.764;2023-04-06T03:11:56;12.13;;;7.82;;
44197;SDS011;30157;55.512;37.764;2023-04-06T03:14:23;13.20;;;7.72;;
44197;SDS011;30157;55.512;37.764;2023-04-06T03:16:49;10.20;;;7.30;;
44197;SDS011;30157;55.512;37.764;2023-04-06T03:19:19;10.98;;;6.88;;
44197;SDS011;30157;55.512;37.764;2023-04-06T03:21:45;12.90;;;7.70;;
44197;SDS011;30157;55.512;37.764;2023-04-06T03:24:12;11.57;;;7.38;;
44197;SDS011;30157;55.512;37.764;2023-04-06T03:26:39;13.05;;;7.38;;
44197;SDS011;30157;55.512;37.764;2023-04-06T03:29:06;11.38;;;7.22;;
44197;SDS011;30157;55.512;37.764;2023-04-06T03:31:32;12.13;;;7.28;;
44197;SDS011;30157;55.512;37.764;2023-04-06T03:34:04;10.50;;;6.93;;
44197;SDS011;30157;55.512;37.764;2023-04-06T03:36:33;12.60;;;7.07;;
44197;SDS011;30157;55.512;37.764;2023-04-06T03:39:01;12.98;;;6.38;;
44197;SDS011;30157;55.512;37.764;2023-04-06T03:41:30;13.88;;;7.28;;
44197;SDS011;30157;55.512;37.764;2023-04-06T03:44:05;10.85;;;6.97;;
44197;SDS011;30157;55.512;37.764;2023-04-06T03:46:31;12.23;;;6.70;;
44197;SDS011;30157;55.512;37.764;2023-04-06T03:48:58;9.27;;;6.18;;
44197;SDS011;30157;55.512;37.764;2023-04-06T03:51:23;9.15;;;5.95;;
44197;SDS011;30157;55.512;37.764;2023-04-06T03:53:50;8.35;;;5.95;;
44197;SDS011;30157;55.512;37.764;2023-04-06T03:56:16;10.98;;;5.85;;
44197;SDS011;30157;55.512;37.764;2023-04-06T03:58:42;8.85;;;6.05;;
44197;SDS011;30157;55.512;37.764;2023-04-06T04:01:09;8.70;;;5.63;;
44197;SDS011;30157;55.512;37.764;2023-04-06T04:03:35;9.60;;;5.85;;
44197;SDS011;30157;55.512;37.764;2023-04-06T04:06:01;9.07;;;5.65;;
44197;SDS011;30157;55.512;37.764;2023-04-06T04:08:26;9.68;;;5.45;;
44197;SDS011;30157;55.512;37.764;2023-04-06T04:10:52;10.18;;;5.18;;
44197;SDS011;30157;55.512;37.764;2023-04-06T04:13:18;12.02;;;6.13;;
44197;SDS011;30157;55.512;37.764;2023-04-06T04:15:47;10.43;;;5.30;;
44197;SDS011;30157;55.512;37.764;2023-04-06T04:18:14;8.07;;;5.35;;
44197;SDS011;30157;55.512;37.764;2023-04-06T04:20:40;9.10;;;5.18;;
44197;SDS011;30157;55.512;37.764;2023-04-06T04:23:08;9.18;;;4.75;;
44197;SDS011;30157;55.512;37.764;2023-04-06T04:25:34;8.00;;;4.53;;
44197;SDS011;30157;55.512;37.764;2023-04-06T04:28:00;6.07;;;4.63;;
44197;SDS011;30157;55.512;37.764;2023-04-06T04:30:27;8.98;;;4.75;;
44197;SDS011;30157;55.512;37.764;2023-04-06T04:32:53;5.78;;;4.57;;
44197;SDS011;30157;55.512;37.764;2023-04-06T04:35:21;7.20;;;4.10;;
44197;SDS011;30157;55.512;37.764;2023-04-06T04:37:47;9.27;;;4.18;;
44197;SDS011;30157;55.512;37.764;2023-04-06T04:40:15;9.82;;;4.20;;
44197;SDS011;30157;55.512;37.764;2023-04-06T04:43:02;7.78;;;4.22;;
44197;SDS011;30157;55.512;37.764;2023-04-06T04:45:31;5.82;;;3.72;;
44197;SDS011;30157;55.512;37.764;2023-04-06T04:48:03;6.88;;;4.30;;
44197;SDS011;30157;55.512;37.764;2023-04-06T04:50:39;5.10;;;3.60;;
44197;SDS011;30157;55.512;37.764;2023-04-06T04:53:07;5.90;;;3.90;;
44197;SDS011;30157;55.512;37.764;2023-04-06T04:55:33;6.13;;;4.10;;
44197;SDS011;30157;55.512;37.764;2023-04-06T04:57:59;6.60;;;4.40;;
44197;SDS011;30157;55.512;37.764;2023-04-06T05:00:40;5.25;;;3.40;;
44197;SDS011;30157;55.512;37.764;2023-04-06T05:03:06;6.95;;;3.97;;
44197;SDS011;30157;55.512;37.764;2023-04-06T05:05:35;6.38;;;3.65;;
44197;SDS011;30157;55.512;37.764;2023-04-06T05:08:03;6.85;;;3.80;;
44197;SDS011;30157;55.512;37.764;2023-04-06T05:10:42;6.05;;;3.78;;
44197;SDS011;30157;55.512;37.764;2023-04-06T05:13:09;5.93;;;3.80;;
44197;SDS011;30157;55.512;37.764;2023-04-06T05:15:36;4.93;;;3.42;;
44197;SDS011;30157;55.512;37.764;2023-04-06T05:18:16;7.05;;;3.30;;
44197;SDS011;30157;55.512;37.764;2023-04-06T05:20:42;5.60;;;3.95;;
44197;SDS011;30157;55.512;37.764;2023-04-06T05:23:08;7.40;;;4.22;;
44197;SDS011;30157;55.512;37.764;2023-04-06T05:25:34;6.13;;;3.65;;
44197;SDS011;30157;55.512;37.764;2023-04-06T05:28:11;5.55;;;3.72;;
44197;SDS011;30157;55.512;37.764;2023-04-06T05:30:40;7.60;;;4.20;;
44197;SDS011;30157;55.512;37.764;2023-04-06T05:33:08;6.32;;;3.80;;
44197;SDS011;30157;55.512;37.764;2023-04-06T05:35:47;5.18;;;3.95;;
44197;SDS011;30157;55.512;37.764;2023-04-06T05:38:13;4.47;;;2.88;;
44197;SDS011;30157;55.512;37.764;2023-04-06T05:40:39;7.00;;;3.67;;
44197;SDS011;30157;55.512;37.764;2023-04-06T05:43:09;5.47;;;3.42;;
44197;SDS011;30157;55.512;37.764;2023-04-06T05:45:38;5.72;;;3.78;;
44197;SDS011;30157;55.512;37.764;2023-04-06T05:48:05;8.43;;;3.92;;
44197;SDS011;30157;55.512;37.764;2023-04-06T05:50:31;7.75;;;3.92;;
44197;SDS011;30157;55.512;37.764;2023-04-06T05:52:57;8.30;;;3.88;;
44197;SDS011;30157;55.512;37.764;2023-04-06T05:55:29;6.80;;;3.80;;
44197;SDS011;30157;55.512;37.764;2023-04-06T05:58:07;7.75;;;3.40;;
44197;SDS011;30157;55.512;37.764;2023-04-06T06:00:32;6.47;;;3.85;;
44197;SDS011;30157;55.512;37.764;2023-04-06T06:03:03;5.57;;;4.10;;
44197;SDS011;30157;55.512;37.764;2023-04-06T06:05:32;5.90;;;3.47;;
44197;SDS011;30157;55.512;37.764;2023-04-06T06:08:05;7.60;;;3.55;;
44197;SDS011;30157;55.512;37.764;2023-04-06T06:10:30;5.70;;;3.78;;
44197;SDS011;30157;55.512;37.764;2023-04-06T06:12:57;6.25;;;3.42;;
44197;SDS011;30157;55.512;37.764;2023-04-06T06:15:23;4.97;;;3.75;;
44197;SDS011;30157;55.512;37.764;2023-04-06T06:17:51;6.65;;;3.55;;
44197;SDS011;30157;55.512;37.764;2023-04-06T06:20:17;5.18;;;3.13;;
44197;SDS011;30157;55.512;37.764;2023-04-06T06:22:43;6.47;;;3.70;;
44197;SDS011;30157;55.512;37.764;2023-04-06T06:25:14;8.02;;;3.97;;
44197;SDS011;30157;55.512;37.764;2023-04-06T06:27:41;7.45;;;3.80;;
44197;SDS011;30157;55.512;37.764;2023-04-06T06:30:07;6.60;;;3.60;;
44197;SDS011;30157;55.512;37.764;2023-04-06T06:32:37;5.82;;;3.47;;
44197;SDS011;30157;55.512;37.764;2023-04-06T06:35:03;8.63;;;3.75;;
44197;SDS011;30157;55.512;37.764;2023-04-06T06:37:29;5.05;;;3.70;;
44197;SDS011;30157;55.512;37.764;2023-04-06T06:39:54;6.72;;;3.75;;
44197;SDS011;30157;55.512;37.764;2023-04-06T06:42:21;9.23;;;3.60;;
44197;SDS011;30157;55.512;37.764;2023-04-06T06:45:12;5.43;;;3.63;;
44197;SDS011;30157;55.512;37.764;2023-04-06T06:47:39;5.32;;;3.53;;
44197;SDS011;30157;55.512;37.764;2023-04-06T06:50:06;7.75;;;3.75;;
44197;SDS011;30157;55.512;37.764;2023-04-06T06:52:32;6.45;;;3.53;;
44197;SDS011;30157;55.512;37.764;2023-04-06T06:54:59;5.75;;;3.42;;
44197;SDS011;30157;55.512;37.764;2023-04-06T06:57:25;5.35;;;3.90;;
44197;SDS011;30157;55.512;37.764;2023-04-06T06:59:52;5.35;;;3.75;;
44197;SDS011;30157;55.512;37.764;2023-04-06T07:02:19;5.10;;;3.65;;
44197;SDS011;30157;55.512;37.764;2023-04-06T07:04:47;5.90;;;3.15;;
44197;SDS011;30157;55.512;37.764;2023-04-06T07:07:14;6.75;;;3.42;;
44197;SDS011;30157;55.512;37.764;2023-04-06T07:09:40;7.68;;;3.78;;
44197;SDS011;30157;55.512;37.764;2023-04-06T07:12:05;6.03;;;3.70;;
44197;SDS011;30157;55.512;37.764;2023-04-06T07:14:31;9.55;;;4.22;;
44197;SDS011;30157;55.512;37.764;2023-04-06T07:16:57;8.35;;;4.03;;
44197;SDS011;30157;55.512;37.764;2023-04-06T07:19:23;7.55;;;4.50;;
44197;SDS011;30157;55.512;37.764;2023-04-06T07:21:49;6.13;;;3.70;;
44197;SDS011;30157;55.512;37.764;2023-04-06T07:24:15;5.35;;;4.25;;
44197;SDS011;30157;55.512;37.764;2023-04-06T07:26:42;6.15;;;3.92;;
44197;SDS011;30157;55.512;37.764;2023-04-06T07:29:08;5.55;;;3.70;;
44197;SDS011;30157;55.512;37.764;2023-04-06T07:31:34;6.40;;;3.40;;
44197;SDS011;30157;55.512;37.764;2023-04-06T07:34:05;5.03;;;3.42;;
44197;SDS011;30157;55.512;37.764;2023-04-06T07:36:31;5.43;;;3.13;;
44197;SDS011;30157;55.512;37.764;2023-04-06T07:38:56;8.25;;;3.47;;
44197;SDS011;30157;55.512;37.764;2023-04-06T07:41:22;7.50;;;3.70;;
44197;SDS011;30157;55.512;37.764;2023-04-06T07:43:49;5.07;;;3.70;;
44197;SDS011;30157;55.512;37.764;2023-04-06T07:46:16;5.43;;;3.75;;
44197;SDS011;30157;55.512;37.764;2023-04-06T07:48:42;5.88;;;3.20;;
44197;SDS011;30157;55.512;37.764;2023-04-06T07:51:07;6.68;;;3.33;;
44197;SDS011;30157;55.512;37.764;2023-04-06T07:53:38;8.52;;;3.67;;
44197;SDS011;30157;55.512;37.764;2023-04-06T07:56:04;5.03;;;3.10;;
44197;SDS011;30157;55.512;37.764;2023-04-06T07:58:30;5.53;;;3.38;;
44197;SDS011;30157;55.512;37.764;2023-04-06T08:00:56;6.25;;;3.45;;
44197;SDS011;30157;55.512;37.764;2023-04-06T08:03:23;7.50;;;2.97;;
44197;SDS011;30157;55.512;37.764;2023-04-06T08:05:51;6.85;;;3.75;;
44197;SDS011;30157;55.512;37.764;2023-04-06T08:08:18;6.47;;;3.03;;
44197;SDS011;30157;55.512;37.764;2023-04-06T08:10:44;4.63;;;3.00;;
44197;SDS011;30157;55.512;37.764;2023-04-06T08:13:10;6.07;;;3.40;;
44197;SDS011;30157;55.512;37.764;2023-04-06T08:15:36;11.82;;;4.05;;
44197;SDS011;30157;55.512;37.764;2023-04-06T08:18:02;5.35;;;3.45;;
44197;SDS011;30157;55.512;37.764;2023-04-06T08:20:28;7.03;;;2.75;;
44197;SDS011;30157;55.512;37.764;2023-04-06T08:22:53;3.40;;;2.80;;
44197;SDS011;30157;55.512;37.764;2023-04-06T08:25:19;4.97;;;2.92;;
44197;SDS011;30157;55.512;37.764;2023-04-06T08:27:45;5.22;;;2.88;;
44197;SDS011;30157;55.512;37.764;2023-04-06T08:30:11;5.65;;;3.30;;
44197;SDS011;30157;55.512;37.764;2023-04-06T08:32:36;5.18;;;2.70;;
44197;SDS011;30157;55.512;37.764;2023-04-06T08:35:02;5.20;;;2.92;;
44197;SDS011;30157;55.512;37.764;2023-04-06T08:37:28;8.02;;;3.33;;
44197;SDS011;30157;55.512;37.764;2023-04-06T08:39:54;7.13;;;3.03;;
44197;SDS011;30157;55.512;37.764;2023-04-06T08:42:20;5.53;;;2.90;;
44197;SDS011;30157;55.512;37.764;2023-04-06T08:44:49;7.70;;;3.00;;
44197;SDS011;30157;55.512;37.764;2023-04-06T08:47:17;4.65;;;3.15;;
44197;SDS011;30157;55.512;37.764;2023-04-06T08:49:44;6.43;;;3.45;;
44197;SDS011;30157;55.512;37.764;2023-04-06T08:52:11;6.80;;;3.03;;
44197;SDS011;30157;55.512;37.764;2023-04-06T08:54:37;5.15;;;3.20;;
44197;SDS011;30157;55.512;37.764;2023-04-06T08:57:03;5.30;;;3.00;;
44197;SDS011;30157;55.512;37.764;2023-04-06T08:59:31;5.57;;;2.83;;
44197;SDS011;30157;55.512;37.764;2023-04-06T09:01:57;6.38;;;3.35;;
44197;SDS011;30157;55.512;37.764;2023-04-06T09:04:31;6.30;;;2.90;;
44197;SDS011;30157;55.512;37.764;2023-04-06T09:07:01;5.05;;;2.83;;
44197;SDS011;30157;55.512;37.764;2023-04-06T09:09:27;4.82;;;2.80;;
44197;SDS011;30157;55.512;37.764;2023-04-06T09:11:53;6.28;;;3.00;;
44197;SDS011;30157;55.512;37.764;2023-04-06T09:17:22;6.93;;;3.17;;
44197;SDS011;30157;55.512;37.764;2023-04-06T09:19:49;4.50;;;2.60;;
44197;SDS011;30157;55.512;37.764;2023-04-06T09:22:16;5.88;;;2.88;;
44197;SDS011;30157;55.512;37.764;2023-04-06T09:24:46;3.63;;;2.50;;
44197;SDS011;30157;55.512;37.764;2023-04-06T09:27:13;7.40;;;3.28;;
44197;SDS011;30157;55.512;37.764;2023-04-06T09:29:40;4.65;;;2.58;;
44197;SDS011;30157;55.512;37.764;2023-04-06T09:32:07;6.28;;;2.65;;
44197;SDS011;30157;55.512;37.764;2023-04-06T09:34:42;4.10;;;2.40;;
44197;SDS011;30157;55.512;37.764;2023-04-06T09:39:39;5.20;;;2.58;;
44197;SDS011;30157;55.512;37.764;2023-04-06T09:42:05;5.22;;;2.53;;
44197;SDS011;30157;55.512;37.764;2023-04-06T09:44:31;6.22;;;2.20;;
44197;SDS011;30157;55.512;37.764;2023-04-06T09:46:57;6.13;;;2.78;;
44197;SDS011;30157;55.512;37.764;2023-04-06T09:49:22;4.47;;;2.40;;
44197;SDS011;30157;55.512;37.764;2023-04-06T09:52:25;7.50;;;3.08;;
44197;SDS011;30157;55.512;37.764;2023-04-06T09:54:45;5.47;;;2.53;;
44197;SDS011;30157;55.512;37.764;2023-04-06T10:00:11;4.00;;;2.50;;
44197;SDS011;30157;55.512;37.764;2023-04-06T10:02:58;4.43;;;2.42;;
44197;SDS011;30157;55.512;37.764;2023-04-06T10:05:53;3.45;;;1.92;;
44197;SDS011;30157;55.512;37.764;2023-04-06T10:08:28;9.35;;;2.50;;
44197;SDS011;30157;55.512;37.764;2023-04-06T10:10:57;4.95;;;2.58;;
44197;SDS011;30157;55.512;37.764;2023-04-06T10:13:25;3.92;;;2.30;;
44197;SDS011;30157;55.512;37.764;2023-04-06T10:15:52;5.43;;;2.60;;
44197;SDS011;30157;55.512;37.764;2023-04-06T10:18:17;5.43;;;2.78;;
44197;SDS011;30157;55.512;37.764;2023-04-06T10:21:19;6.05;;;2.50;;
44197;SDS011;30157;55.512;37.764;2023-04-06T10:23:49;7.35;;;2.80;;
44197;SDS011;30157;55.512;37.764;2023-04-06T10:26:19;4.47;;;2.28;;
44197;SDS011;30157;55.512;37.764;2023-04-06T10:28:47;5.32;;;2.60;;
44197;SDS011;30157;55.512;37.764;2023-04-06T10:31:13;3.65;;;1.98;;
44197;SDS011;30157;55.512;37.764;2023-04-06T10:33:39;4.35;;;2.50;;
44197;SDS011;30157;55.512;37.764;2023-04-06T10:36:13;10.90;;;2.30;;
44197;SDS011;30157;55.512;37.764;2023-04-06T10:38:40;6.53;;;2.72;;
44197;SDS011;30157;55.512;37.764;2023-04-06T10:41:08;8.77;;;2.55;;
44197;SDS011;30157;55.512;37.764;2023-04-06T10:43:36;4.45;;;2.25;;
44197;SDS011;30157;55.512;37.764;2023-04-06T10:46:03;4.45;;;2.30;;
44197;SDS011;30157;55.512;37.764;2023-04-06T10:48:40;6.10;;;2.40;;
44197;SDS011;30157;55.512;37.764;2023-04-06T10:51:07;6.80;;;2.72;;
44197;SDS011;30157;55.512;37.764;2023-04-06T10:53:37;5.25;;;2.35;;
44197;SDS011;30157;55.512;37.764;2023-04-06T10:56:04;4.55;;;2.40;;
44197;SDS011;30157;55.512;37.764;2023-04-06T10:58:35;6.20;;;2.80;;
44197;SDS011;30157;55.512;37.764;2023-04-06T11:01:01;4.82;;;2.50;;
44197;SDS011;30157;55.512;37.764;2023-04-06T11:03:27;3.58;;;2.20;;
44197;SDS011;30157;55.512;37.764;2023-04-06T11:05:53;5.07;;;2.25;;
44197;SDS011;30157;55.512;37.764;2023-04-06T11:08:24;6.43;;;2.72;;
44197;SDS011;30157;55.512;37.764;2023-04-06T11:21:15;5.07;;;2.53;;
44197;SDS011;30157;55.512;37.764;2023-04-06T11:23:43;3.97;;;2.17;;
44197;SDS011;30157;55.512;37.764;2023-04-06T11:26:12;4.60;;;2.67;;
44197;SDS011;30157;55.512;37.764;2023-04-06T11:28:40;4.50;;;2.20;;
44197;SDS011;30157;55.512;37.764;2023-04-06T11:31:07;4.85;;;2.28;;
44197;SDS011;30157;55.512;37.764;2023-04-06T11:33:35;6.22;;;2.50;;
44197;SDS011;30157;55.512;37.764;2023-04-06T11:36:02;4.88;;;2.28;;
44197;SDS011;30157;55.512;37.764;2023-04-06T11:38:27;7.88;;;2.45;;
44197;SDS011;30157;55.512;37.764;2023-04-06T11:40:53;5.78;;;2.42;;
44197;SDS011;30157;55.512;37.764;2023-04-06T11:43:25;4.45;;;2.47;;
44197;SDS011;30157;55.512;37.764;2023-04-06T11:45:58;4.70;;;2.47;;
44197;SDS011;30157;55.512;37.764;2023-04-06T11:48:26;4.80;;;2.50;;
44197;SDS011;30157;55.512;37.764;2023-04-06T11:50:58;7.68;;;2.22;;
44197;SDS011;30157;55.512;37.764;2023-04-06T11:53:27;6.43;;;2.47;;
44197;SDS011;30157;55.512;37.764;2023-04-06T11:55:55;4.10;;;2.38;;
44197;SDS011;30157;55.512;37.764;2023-04-06T11:58:21;7.25;;;2.45;;
44197;SDS011;30157;55.512;37.764;2023-04-06T12:00:47;4.15;;;2.17;;
44197;SDS011;30157;55.512;37.764;2023-04-06T12:03:13;4.65;;;2.38;;
44197;SDS011;30157;55.512;37.764;2023-04-06T12:05:39;6.28;;;2.33;;
44197;SDS011;30157;55.512;37.764;2023-04-06T12:08:06;6.07;;;2.30;;
44197;SDS011;30157;55.512;37.764;2023-04-06T12:10:31;3.63;;;1.85;;
44197;SDS011;30157;55.512;37.764;2023-04-06T12:12:57;4.45;;;2.38;;
44197;SDS011;30157;55.512;37.764;2023-04-06T12:15:23;5.38;;;2.25;;
44197;SDS011;30157;55.512;37.764;2023-04-06T12:17:48;6.57;;;2.45;;
44197;SDS011;30157;55.512;37.764;2023-04-06T12:20:17;5.85;;;2.72;;
44197;SDS011;30157;55.512;37.764;2023-04-06T12:22:43;9.68;;;3.20;;
44197;SDS011;30157;55.512;37.764;2023-04-06T12:25:08;4.97;;;1.92;;
44197;SDS011;30157;55.512;37.764;2023-04-06T12:27:34;6.25;;;2.15;;
44197;SDS011;30157;55.512;37.764;2023-04-06T12:30:00;3.53;;;2.05;;
44197;SDS011;30157;55.512;37.764;2023-04-06T12:32:28;4.93;;;2.00;;
44197;SDS011;30157;55.512;37.764;2023-04-06T12:34:54;6.75;;;2.15;;
44197;SDS011;30157;55.512;37.764;2023-04-06T12:37:20;4.32;;;2.10;;
44197;SDS011;30157;55.512;37.764;2023-04-06T12:39:46;4.95;;;2.10;;
44197;SDS011;30157;55.512;37.764;2023-04-06T12:42:12;4.93;;;2.13;;
44197;SDS011;30157;55.512;37.764;2023-04-06T12:44:39;5.32;;;2.00;;
44197;SDS011;30157;55.512;37.764;2023-04-06T12:47:04;3.63;;;2.10;;
44197;SDS011;30157;55.512;37.764;2023-04-06T12:49:32;5.78;;;2.47;;
44197;SDS011;30157;55.512;37.764;2023-04-06T12:51:58;5.03;;;1.98;;
44197;SDS011;30157;55.512;37.764;2023-04-06T12:54:24;3.00;;;1.80;;
44197;SDS011;30157;55.512;37.764;2023-04-06T12:56:51;3.45;;;1.80;;
44197;SDS011;30157;55.512;37.764;2023-04-06T12:59:17;2.92;;;2.10;;
44197;SDS011;30157;55.512;37.764;2023-04-06T13:01:43;6.43;;;2.15;;
44197;SDS011;30157;55.512;37.764;2023-04-06T13:04:09;4.13;;;1.88;;
44197;SDS011;30157;55.512;37.764;2023-04-06T13:06:35;3.22;;;2.10;;
44197;SDS011;30157;55.512;37.764;2023-04-06T13:09:00;4.22;;;2.10;;
44197;SDS011;30157;55.512;37.764;2023-04-06T13:11:26;5.55;;;1.98;;
44197;SDS011;30157;55.512;37.764;2023-04-06T13:13:52;5.78;;;2.03;;
44197;SDS011;30157;55.512;37.764;2023-04-06T13:16:18;7.03;;;2.00;;
44197;SDS011;30157;55.512;37.764;2023-04-06T13:18:44;3.95;;;2.10;;
44197;SDS011;30157;55.512;37.764;2023-04-06T13:21:12;4.90;;;2.05;;
44197;SDS011;30157;55.512;37.764;2023-04-06T13:23:40;4.68;;;2.40;;
44197;SDS011;30157;55.512;37.764;2023-04-06T13:26:06;5.20;;;2.30;;
44197;SDS011;30157;55.512;37.764;2023-04-06T13:28:40;7.05;;;2.10;;
44197;SDS011;30157;55.512;37.764;2023-04-06T13:31:06;5.53;;;2.03;;
44197;SDS011;30157;55.512;37.764;2023-04-06T13:33:32;3.95;;;1.77;;
44197;SDS011;30157;55.512;37.764;2023-04-06T13:35:58;6.70;;;2.10;;
44197;SDS011;30157;55.512;37.764;2023-04-06T13:38:24;4.63;;;2.40;;
44197;SDS011;30157;55.512;37.764;2023-04-06T13:40:50;5.43;;;2.10;;
44197;SDS011;30157;55.512;37.764;2023-04-06T13:43:16;3.75;;;1.85;;
44197;SDS011;30157;55.512;37.764;2023-04-06T13:45:49;5.65;;;2.10;;
44197;SDS011;30157;55.512;37.764;2023-04-06T13:48:16;5.18;;;2.65;;
44197;SDS011;30157;55.512;37.764;2023-04-06T13:50:42;5.30;;;2.28;;
44197;SDS011;30157;55.512;37.764;2023-04-06T13:53:08;6.70;;;2.15;;
44197;SDS011;30157;55.512;37.764;2023-04-06T13:55:33;5.68;;;1.95;;
44197;SDS011;30157;55.512;37.764;2023-04-06T13:57:59;6.82;;;1.95;;
44197;SDS011;30157;55.512;37.764;2023-04-06T14:00:25;3.83;;;2.10;;
44197;SDS011;30157;55.512;37.764;2023-04-06T14:02:50;3.28;;;2.10;;
44197;SDS011;30157;55.512;37.764;2023-04-06T14:05:20;4.82;;;2.00;;
44197;SDS011;30157;55.512;37.764;2023-04-06T14:07:48;4.68;;;2.00;;
44197;SDS011;30157;55.512;37.764;2023-04-06T14:10:15;4.35;;;2.10;;
44197;SDS011;30157;55.512;37.764;2023-04-06T14:12:41;4.53;;;2.15;;
44197;SDS011;30157;55.512;37.764;2023-04-06T14:15:08;3.38;;;2.30;;
44197;SDS011;30157;55.512;37.764;2023-04-06T14:17:34;4.88;;;2.20;;
44197;SDS011;30157;55.512;37.764;2023-04-06T14:20:00;3.88;;;1.92;;
44197;SDS011;30157;55.512;37.764;2023-04-06T14:22:26;3.83;;;2.00;;
44197;SDS011;30157;55.512;37.764;2023-04-06T14:24:51;5.88;;;2.63;;
44197;SDS011;30157;55.512;37.764;2023-04-06T14:27:17;6.05;;;2.25;;
44197;SDS011;30157;55.512;37.764;2023-04-06T14:29:43;5.03;;;2.03;;
44197;SDS011;30157;55.512;37.764;2023-04-06T14:32:08;4.72;;;2.20;;
44197;SDS011;30157;55.512;37.764;2023-04-06T14:34:36;5.85;;;2.40;;
44197;SDS011;30157;55.512;37.764;2023-04-06T14:37:02;8.27;;;2.83;;
44197;SDS011;30157;55.512;37.764;2023-04-06T14:39:28;4.30;;;2.38;;
44197;SDS011;30157;55.512;37.764;2023-04-06T14:41:53;5.72;;;2.15;;
44197;SDS011;30157;55.512;37.764;2023-04-06T14:44:20;5.57;;;2.20;;
44197;SDS011;30157;55.512;37.764;2023-04-06T14:46:46;6.22;;;2.05;;
44197;SDS011;30157;55.512;37.764;2023-04-06T14:49:13;4.47;;;2.13;;
44197;SDS011;30157;55.512;37.764;2023-04-06T14:51:38;4.20;;;1.90;;
44197;SDS011;30157;55.512;37.764;2023-04-06T14:54:04;4.20;;;2.15;;
44197;SDS011;30157;55.512;37.764;2023-04-06T14:56:30;6.18;;;2.35;;
44197;SDS011;30157;55.512;37.764;2023-04-06T14:58:59;5.80;;;2.08;;